Pacific Viking — CFC4341 — position and weather

sailwx.info

Track history (hours):
 
Tides and Currents Weather Stations Pressure Air Temp Water Temp Dewpoint Dewpoint Depression Visibility Wind Speed Wind Dir Waves Ship Positions

Pacific Viking

Last reported at 2017-Oct-10 13:11 UTC. Time now 2017-Oct-17 01:05 UTC.
Position N 48°51' W 126°28'.

Length 24 m.

Type: Fishing. MMSI: 316007587.

Date/timePositionNaut miles runAvg speedWind from/ knotsBaromVisibWave heightAir tempDewpointWater temp
2017-Oct-10 13:11N 48°51' W 126°28'0 1.8
2017-Oct-10 12:54N 48°51' W 126°28'1 1.6
2017-Oct-10 12:30N 48°52' W 126°29'1 1.6
2017-Oct-10 11:57N 48°53' W 126°29'23 2.6
2017-Oct-10 03:12N 48°33' W 126°11'8 1.3
2017-Oct-09 20:49N 48°25' W 126°11'19 1.1
2017-Oct-09 03:19N 48°41' W 126°26'3 7.8
2017-Oct-09 02:54N 48°39' W 126°23'9 7.0
2017-Oct-09 01:35N 48°33' W 126°11'1 3.8
2017-Oct-09 01:27N 48°33' W 126°10'8 1.7
2017-Oct-08 20:45N 48°25' W 126°10'2 5.2
2017-Oct-08 20:26N 48°25' W 126°07'21 2.3
2017-Oct-08 11:22N 48°20' W 125°36'25 6.9
2017-Oct-08 07:47N 48°29' W 125°02'3 6.3
2017-Oct-08 07:19N 48°30' W 124°57'2 6.8
2017-Oct-08 06:57N 48°31' W 124°54'4 7.5
2017-Oct-08 06:29N 48°32' W 124°49'4 8.0
2017-Oct-08 06:00N 48°32' W 124°43'4 8.1
2017-Oct-08 05:30N 48°32' W 124°37'4 8.7
2017-Oct-08 05:00N 48°30' W 124°31'4 8.7
2017-Oct-08 04:30N 48°29' W 124°25'4 8.5
2017-Oct-08 04:00N 48°27' W 124°19'4 8.7
2017-Oct-08 03:30N 48°25' W 124°13'4 8.7
2017-Oct-08 02:59N 48°24' W 124°06'4 8.9
2017-Oct-08 02:29N 48°22' W 124°00'6 8.6
2017-Oct-08 01:46N 48°20' W 123°51'3 8.2
2017-Oct-08 01:24N 48°20' W 123°47'4 7.9
2017-Oct-08 00:57N 48°18' W 123°42'3 6.5
2017-Oct-08 00:27N 48°18' W 123°37'3 5.9
2017-Oct-07 23:59N 48°18' W 123°33'4 8.1
2017-Oct-07 23:30N 48°20' W 123°28'3 6.9
2017-Oct-07 23:01N 48°22' W 123°23'3 6.3
2017-Oct-07 22:30N 48°23' W 123°19'3 6.8
2017-Oct-07 22:00N 48°26' W 123°16'3 6.6
2017-Oct-07 21:30N 48°29' W 123°16'4 8.3
2017-Oct-07 21:00N 48°33' W 123°17'5 8.4
2017-Oct-07 20:23N 48°38' W 123°21'6 9.1
2017-Oct-07 19:41N 48°44' W 123°21'2 9.4
2017-Oct-07 19:29N 48°46' W 123°21'5 9.1
2017-Oct-07 18:59N 48°51' W 123°22'4 9.3
2017-Oct-07 18:30N 48°53' W 123°27'5 9.5
2017-Oct-07 18:00N 48°57' W 123°32'5 9.3
2017-Oct-07 17:30N 49°00' W 123°37'4 8.5
2017-Oct-07 17:00N 49°03' W 123°42'5 8.4
2017-Oct-07 16:28N 49°06' W 123°46'4 8.1
2017-Oct-07 16:00N 49°09' W 123°51'4 7.6
2017-Oct-07 15:30N 49°12' W 123°54'2 1.8
2017-Oct-07 14:21N 49°13' W 123°57'0 0.0
2017-Oct-07 13:50N 49°13' W 123°57'0 0.0
2017-Oct-07 13:23N 49°13' W 123°57'0 0.0
2017-Oct-07 12:56N 49°13' W 123°57'0 0.0
2017-Oct-07 12:25N 49°13' W 123°57'0 0.0
2017-Oct-07 11:48N 49°13' W 123°57'0 0.0
2017-Oct-07 11:30N 49°13' W 123°57'0 0.0
2017-Oct-07 07:14N 49°13' W 123°57'0 0.0
2017-Oct-07 06:59N 49°13' W 123°57'0 0.0
2017-Oct-07 06:29N 49°13' W 123°57'0 0.0
2017-Oct-07 05:56N 49°13' W 123°57'0 0.0
2017-Oct-07 05:29N 49°13' W 123°57'0 0.0
2017-Oct-07 05:00N 49°13' W 123°57'0 0.0
2017-Oct-07 04:30N 49°13' W 123°57'0 0.0
2017-Oct-07 04:00N 49°13' W 123°57'0 0.0
2017-Oct-07 03:26N 49°13' W 123°57'0 0.0
2017-Oct-07 02:51N 49°13' W 123°57'0 0.0
2017-Oct-07 02:30N 49°13' W 123°57'0 0.0
2017-Oct-07 01:55N 49°13' W 123°57'0 0.0
2017-Oct-07 01:30N 49°13' W 123°57'0 0.0
2017-Oct-07 00:41N 49°13' W 123°57'0 0.0
2017-Oct-07 00:29N 49°13' W 123°57'0 0.0
2017-Oct-06 23:41N 49°13' W 123°57'0 0.0
2017-Oct-06 23:30N 49°13' W 123°57'0 0.0
2017-Oct-06 23:00N 49°13' W 123°57'0 0.0
2017-Oct-06 22:30N 49°13' W 123°57'0 0.0
2017-Oct-06 22:00N 49°13' W 123°57'0 0.0
2017-Oct-06 21:30N 49°13' W 123°57'0 0.0
2017-Oct-06 21:00N 49°13' W 123°57'0 0.0
2017-Oct-06 20:14N 49°13' W 123°57'0 0.0
2017-Oct-06 20:00N 49°13' W 123°57'0 0.0
2017-Oct-06 18:59N 49°13' W 123°57'0 0.0
2017-Oct-06 18:30N 49°13' W 123°57'0 0.0
2017-Oct-06 17:57N 49°13' W 123°57'0 0.0
2017-Oct-06 17:22N 49°13' W 123°57'0 0.0
2017-Oct-06 16:53N 49°13' W 123°57'0 0.0
2017-Oct-06 16:30N 49°13' W 123°57'0 0.0
2017-Oct-06 15:59N 49°13' W 123°57'0 0.0
2017-Oct-06 15:08N 49°13' W 123°57'0 0.0
2017-Oct-06 14:58N 49°13' W 123°57'0 0.0
2017-Oct-06 14:25N 49°13' W 123°57'0 0.0
2017-Oct-06 13:48N 49°13' W 123°57'0 0.0
2017-Oct-06 09:21N 49°13' W 123°57'0 0.1
2017-Oct-06 09:00N 49°13' W 123°57'2 4.7
2017-Oct-06 08:30N 49°12' W 123°54'4 7.2
2017-Oct-06 07:59N 49°13' W 123°48'3 7.0
2017-Oct-06 07:29N 49°13' W 123°43'3 6.7
2017-Oct-06 07:00N 49°11' W 123°38'3 6.9
2017-Oct-06 06:30N 49°10' W 123°33'3 6.8
2017-Oct-06 06:00N 49°08' W 123°29'3 6.5
2017-Oct-06 05:30N 49°07' W 123°24'3 6.6
2017-Oct-06 05:00N 49°06' W 123°19'4 8.8
2017-Oct-06 04:30N 49°08' W 123°13'2 4.3
2017-Oct-06 04:00N 49°07' W 123°10'0 0.0
2017-Oct-06 03:30N 49°07' W 123°10'0 0.0
2017-Oct-06 03:00N 49°07' W 123°10'0 0.0
2017-Oct-06 02:30N 49°07' W 123°10'0 0.0
2017-Oct-06 02:00N 49°07' W 123°10'0 0.0
2017-Oct-06 01:30N 49°07' W 123°10'0 0.0
2017-Oct-06 01:00N 49°07' W 123°10'0 0.0
2017-Oct-06 00:30N 49°07' W 123°10'0 0.0
2017-Oct-06 00:00N 49°07' W 123°10'0 0.0
2017-Oct-05 23:30N 49°07' W 123°10'0 0.0
2017-Oct-05 23:00N 49°07' W 123°10'0 0.0
2017-Oct-05 22:30N 49°07' W 123°10'0 0.0
2017-Oct-05 22:00N 49°07' W 123°10'0 0.0
2017-Oct-05 21:30N 49°07' W 123°10'0 0.0
2017-Oct-05 21:00N 49°07' W 123°10'0 0.0
2017-Oct-05 20:30N 49°07' W 123°10'0 0.0
2017-Oct-05 20:00N 49°07' W 123°10'0 0.0
2017-Oct-05 19:30N 49°07' W 123°10'0 0.0
2017-Oct-05 19:00N 49°07' W 123°10'0 0.0
2017-Oct-05 18:30N 49°07' W 123°10'0 0.0
2017-Oct-05 18:00N 49°07' W 123°10'0 0.0
2017-Oct-05 17:30N 49°07' W 123°10'0 0.0
2017-Oct-05 17:00N 49°07' W 123°10'0 0.0
2017-Oct-05 15:30N 49°07' W 123°10'0 0.0
2017-Oct-05 15:00N 49°07' W 123°10'0 0.0
2017-Oct-05 14:30N 49°07' W 123°10'0 0.0
2017-Oct-05 14:00N 49°07' W 123°10'0 0.2
2017-Oct-05 13:30N 49°07' W 123°10'0 0.0
2017-Oct-05 13:00N 49°07' W 123°10'0 0.0
2017-Oct-05 12:30N 49°07' W 123°10'0 0.0
2017-Oct-05 12:00N 49°07' W 123°10'0 0.0
2017-Oct-05 11:29N 49°07' W 123°10'0 0.0
2017-Oct-05 11:00N 49°07' W 123°10'0 0.0
2017-Oct-05 10:30N 49°07' W 123°10'0 0.0
2017-Oct-05 09:59N 49°07' W 123°10'0 0.0
2017-Oct-05 09:30N 49°07' W 123°10'0 0.0
2017-Oct-05 09:00N 49°07' W 123°10'0 0.0
2017-Oct-05 08:30N 49°07' W 123°10'0 0.0
2017-Oct-05 08:00N 49°07' W 123°10'0 0.0
2017-Oct-05 07:30N 49°07' W 123°10'0 0.0
2017-Oct-05 07:00N 49°07' W 123°10'0 0.0
2017-Oct-05 06:30N 49°07' W 123°10'0 0.0
2017-Oct-05 06:00N 49°07' W 123°10'0 0.0
2017-Oct-05 05:30N 49°07' W 123°10'0 0.0
2017-Oct-05 05:00N 49°07' W 123°10'0 0.0
2017-Oct-05 04:30N 49°07' W 123°10'0 0.0
2017-Oct-05 04:00N 49°07' W 123°10'0 0.0
2017-Oct-05 03:30N 49°07' W 123°10'0 0.0
2017-Oct-05 03:00N 49°07' W 123°10'0 0.0
2017-Oct-05 02:30N 49°07' W 123°10'0 0.0
2017-Oct-05 02:00N 49°07' W 123°10'0 0.0
2017-Oct-05 01:30N 49°07' W 123°10'0 0.0
2017-Oct-05 01:00N 49°07' W 123°10'0 0.0
2017-Oct-05 00:30N 49°07' W 123°10'0 0.0
2017-Oct-05 00:00N 49°07' W 123°10'0 0.0
2017-Oct-04 23:30N 49°07' W 123°10'0 0.0
2017-Oct-04 23:00N 49°07' W 123°10'0 0.0
2017-Oct-04 22:30N 49°07' W 123°10'0 0.0
2017-Oct-04 22:00N 49°07' W 123°10'0 0.0
2017-Oct-04 21:30N 49°07' W 123°10'0 0.0
2017-Oct-04 21:00N 49°07' W 123°10'0 0.0
2017-Oct-04 20:30N 49°07' W 123°10'0 0.0
2017-Oct-04 20:00N 49°07' W 123°10'0 0.0
2017-Oct-04 19:30N 49°07' W 123°10'0 0.0
2017-Oct-04 19:00N 49°07' W 123°10'0 0.0
2017-Oct-04 18:30N 49°07' W 123°10'0 0.0
2017-Oct-04 18:00N 49°07' W 123°10'0 0.0
2017-Oct-04 17:23N 49°07' W 123°10'0 0.0
2017-Oct-04 17:00N 49°07' W 123°10'0 0.0
2017-Oct-04 16:27N 49°07' W 123°10'0 0.0
2017-Oct-04 15:59N 49°07' W 123°10'0 0.0
2017-Oct-04 15:30N 49°07' W 123°10'0 0.0
2017-Oct-04 14:57N 49°07' W 123°10'0 0.0
2017-Oct-04 14:30N 49°07' W 123°10'0 0.0
2017-Oct-04 14:00N 49°07' W 123°10'0 0.0
2017-Oct-04 13:30N 49°07' W 123°10'0 0.0
2017-Oct-04 13:00N 49°07' W 123°10'0 0.0
2017-Oct-04 12:30N 49°07' W 123°10'0 0.0
2017-Oct-04 12:00N 49°07' W 123°10'0 0.0
2017-Oct-04 11:30N 49°07' W 123°10'0 0.0
2017-Oct-04 11:00N 49°07' W 123°10'0 0.0
2017-Oct-04 10:30N 49°07' W 123°10'0 0.0
2017-Oct-04 10:00N 49°07' W 123°10'0 0.0
2017-Oct-04 09:30N 49°07' W 123°10'0 0.0
2017-Oct-04 09:00N 49°07' W 123°10'0 0.0
2017-Oct-04 08:30N 49°07' W 123°10'0 0.0
2017-Oct-04 08:00N 49°07' W 123°10'0 0.0
2017-Oct-04 07:30N 49°07' W 123°10'0 0.0
2017-Oct-04 07:00N 49°07' W 123°10'0 0.0
2017-Oct-04 06:30N 49°07' W 123°10'0 0.0
2017-Oct-04 06:00N 49°07' W 123°10'0 0.0
2017-Oct-04 05:30N 49°07' W 123°10'0 0.0
2017-Oct-04 05:00N 49°07' W 123°10'0 0.0
2017-Oct-04 04:30N 49°07' W 123°10'0 0.0
2017-Oct-04 04:00N 49°07' W 123°10'0 0.0
2017-Oct-04 03:30N 49°07' W 123°10'0 0.0
2017-Oct-04 03:00N 49°07' W 123°10'0 0.0
2017-Oct-04 02:30N 49°07' W 123°10'0 0.0
2017-Oct-04 02:00N 49°07' W 123°10'0 0.0
2017-Oct-04 01:30N 49°07' W 123°10'0 0.0
2017-Oct-04 01:00N 49°07' W 123°10'0 0.0
2017-Oct-04 00:30N 49°07' W 123°10'0 0.0
2017-Oct-04 00:00N 49°07' W 123°10'0 0.0
2017-Oct-03 23:30N 49°07' W 123°10'0 0.0
2017-Oct-03 23:00N 49°07' W 123°10'0 0.0
2017-Oct-03 22:30N 49°07' W 123°10'0 0.0
2017-Oct-03 22:00N 49°07' W 123°10'0 0.0
2017-Oct-03 21:30N 49°07' W 123°10'0 0.0
2017-Oct-03 21:00N 49°07' W 123°10'0 0.0
2017-Oct-03 20:30N 49°07' W 123°10'0 0.0
2017-Oct-03 20:00N 49°07' W 123°10'0 0.0
2017-Oct-03 19:30N 49°07' W 123°10'0 0.0
2017-Oct-03 19:00N 49°07' W 123°10'0 0.0
2017-Oct-03 18:19N 49°07' W 123°10'0 0.0
2017-Oct-03 18:00N 49°07' W 123°10'0 0.0
2017-Oct-03 17:28N 49°07' W 123°10'0 0.0
2017-Oct-03 17:00N 49°07' W 123°10'0 0.0
2017-Oct-03 16:29N 49°07' W 123°10'0 0.0
2017-Oct-03 16:00N 49°07' W 123°10'0 0.0
2017-Oct-03 15:00N 49°07' W 123°10'0 0.0
2017-Oct-03 14:00N 49°07' W 123°10'0 0.0
2017-Oct-03 13:30N 49°07' W 123°10'0 0.0
2017-Oct-03 13:00N 49°07' W 123°10'0 0.0
2017-Oct-03 12:30N 49°07' W 123°10'0 0.0
2017-Oct-03 11:57N 49°07' W 123°10'0 0.0
2017-Oct-03 11:29N 49°07' W 123°10'0 0.0
2017-Oct-03 10:53N 49°07' W 123°10'0 0.0
2017-Oct-03 10:25N 49°07' W 123°10'0 0.0
2017-Oct-03 09:58N 49°07' W 123°10'0 0.0
2017-Oct-03 09:29N 49°07' W 123°10'0 0.0
2017-Oct-03 09:00N 49°07' W 123°10'0 0.0
2017-Oct-03 08:30N 49°07' W 123°10'0 0.0
2017-Oct-03 08:00N 49°07' W 123°10'0 0.0
2017-Oct-03 07:30N 49°07' W 123°10'0 0.0
2017-Oct-03 07:00N 49°07' W 123°10'0 0.0
2017-Oct-03 06:29N 49°07' W 123°10'0 0.0
2017-Oct-03 05:59N 49°07' W 123°10'0 0.0
2017-Oct-03 05:21N 49°07' W 123°10'0 0.0
2017-Oct-03 05:00N 49°07' W 123°10'0 0.0
2017-Oct-03 04:30N 49°07' W 123°10'0 0.0
2017-Oct-03 04:00N 49°07' W 123°10'0 0.0
2017-Oct-03 03:30N 49°07' W 123°10'0 0.0
2017-Oct-03 03:00N 49°07' W 123°10'0 0.0
2017-Oct-03 02:30N 49°07' W 123°10'0 0.0
2017-Oct-03 02:00N 49°07' W 123°10'0 0.0
2017-Oct-03 01:30N 49°07' W 123°10'0 0.0
2017-Oct-03 01:00N 49°07' W 123°10'0 0.0
2017-Oct-03 00:30N 49°07' W 123°10'0 0.0
2017-Oct-03 00:00N 49°07' W 123°10'0 0.0
2017-Oct-02 23:30N 49°07' W 123°10'0 0.0
2017-Oct-02 23:00N 49°07' W 123°10'0 0.0
2017-Oct-02 22:30N 49°07' W 123°10'0 0.0
2017-Oct-02 22:00N 49°07' W 123°10'0 0.0
2017-Oct-02 21:30N 49°07' W 123°10'0 0.0
2017-Oct-02 21:00N 49°07' W 123°10'0 0.0
2017-Oct-02 20:30N 49°07' W 123°10'0 0.0
2017-Oct-02 19:59N 49°07' W 123°10'0 0.0
2017-Oct-02 19:27N 49°07' W 123°10'0 0.0
2017-Oct-02 18:59N 49°07' W 123°10'0 0.0
2017-Oct-02 18:30N 49°07' W 123°10'0 0.0
2017-Oct-02 18:00N 49°07' W 123°10'0 0.0
2017-Oct-02 17:30N 49°07' W 123°10'0 0.0
2017-Oct-02 16:56N 49°07' W 123°10'0 0.0
2017-Oct-02 16:29N 49°07' W 123°10'0 0.0
2017-Oct-02 16:00N 49°07' W 123°10'0 0.0
2017-Oct-02 15:30N 49°07' W 123°10'0 0.0
2017-Oct-02 15:00N 49°07' W 123°10'0 0.0
2017-Oct-02 14:27N 49°07' W 123°10'0 0.0
2017-Oct-02 14:00N 49°07' W 123°10'0 0.0
2017-Oct-02 13:28N 49°07' W 123°10'0 0.0
2017-Oct-02 13:00N 49°07' W 123°10'0 0.0
2017-Oct-02 12:30N 49°07' W 123°10'0 0.0
2017-Oct-02 12:00N 49°07' W 123°10'0 0.0
2017-Oct-02 11:30N 49°07' W 123°10'0 0.0
2017-Oct-02 11:00N 49°07' W 123°10'0 0.0
2017-Oct-02 10:30N 49°07' W 123°10'0 0.0
2017-Oct-02 10:00N 49°07' W 123°10'0 0.0
2017-Oct-02 09:30N 49°07' W 123°10'0 0.0
2017-Oct-02 09:00N 49°07' W 123°10'0 0.0
2017-Oct-02 08:30N 49°07' W 123°10'0 0.0
2017-Oct-02 08:00N 49°07' W 123°10'0 0.0
2017-Oct-02 07:30N 49°07' W 123°10'0 0.0
2017-Oct-02 07:00N 49°07' W 123°10'0 0.0
2017-Oct-02 06:30N 49°07' W 123°10'0 0.0
2017-Oct-02 06:00N 49°07' W 123°10'0 0.0
2017-Oct-02 05:30N 49°07' W 123°10'0 0.0
2017-Oct-02 05:00N 49°07' W 123°10'0 0.0
2017-Oct-02 04:30N 49°07' W 123°10'0 0.0
2017-Oct-02 04:00N 49°07' W 123°10'0 0.0
2017-Oct-02 03:30N 49°07' W 123°10'0 0.0
2017-Oct-02 02:59N 49°07' W 123°10'0 0.0
2017-Oct-02 02:26N 49°07' W 123°10'0 0.0
2017-Oct-02 02:00N 49°07' W 123°10'0 0.0
2017-Oct-02 01:30N 49°07' W 123°10'0 0.0
2017-Oct-02 01:00N 49°07' W 123°10'0 0.0
2017-Oct-02 00:30N 49°07' W 123°10'0 0.0
2017-Oct-02 00:00N 49°07' W 123°10'0 0.0
2017-Oct-01 23:30N 49°07' W 123°10'0 0.0
2017-Oct-01 22:59N 49°07' W 123°10'0 0.0
2017-Oct-01 22:23N 49°07' W 123°10'0 0.0
2017-Oct-01 21:56N 49°07' W 123°10'0 0.0
2017-Oct-01 21:30N 49°07' W 123°10'0 0.0
2017-Oct-01 20:59N 49°07' W 123°10'0 0.0
2017-Oct-01 20:30N 49°07' W 123°10'0 0.0
2017-Oct-01 20:00N 49°07' W 123°10'0 0.0
2017-Oct-01 19:30N 49°07' W 123°10'0 0.0
2017-Oct-01 18:59N 49°07' W 123°10'0 0.0
2017-Oct-01 18:24N 49°07' W 123°10'0 0.0
2017-Oct-01 17:05N 49°07' W 123°10'0 0.0
2017-Oct-01 16:57N 49°07' W 123°10'0 0.0
2017-Oct-01 16:30N 49°07' W 123°10'0 0.0
2017-Oct-01 16:00N 49°07' W 123°10'0 0.0
2017-Oct-01 15:30N 49°07' W 123°10'0 0.0
2017-Oct-01 15:00N 49°07' W 123°10'0 0.0
2017-Oct-01 14:30N 49°07' W 123°10'0 0.0
2017-Oct-01 14:00N 49°07' W 123°10'0 0.0
2017-Oct-01 13:30N 49°07' W 123°10'0 0.0
2017-Oct-01 13:00N 49°07' W 123°10'0 0.0
2017-Oct-01 12:30N 49°07' W 123°10'0 0.0
2017-Oct-01 12:00N 49°07' W 123°10'0 0.0
2017-Oct-01 11:29N 49°07' W 123°10'0 0.0
2017-Oct-01 11:00N 49°07' W 123°10'0 0.0
2017-Oct-01 10:30N 49°07' W 123°10'0 0.0
2017-Oct-01 10:00N 49°07' W 123°10'0 0.0
2017-Oct-01 09:30N 49°07' W 123°10'0 0.0
2017-Oct-01 09:00N 49°07' W 123°10'0 0.0
2017-Oct-01 08:30N 49°07' W 123°10'0 0.0
2017-Oct-01 08:00N 49°07' W 123°10'0 0.0
2017-Oct-01 07:30N 49°07' W 123°10'0 0.0
2017-Oct-01 07:00N 49°07' W 123°10'0 0.0
2017-Oct-01 06:30N 49°07' W 123°10'0 0.0
2017-Oct-01 06:00N 49°07' W 123°10'0 0.0
2017-Oct-01 05:30N 49°07' W 123°10'0 0.0
2017-Oct-01 05:00N 49°07' W 123°10'0 0.0
2017-Oct-01 04:30N 49°07' W 123°10'0 0.0
2017-Oct-01 04:00N 49°07' W 123°10'0 0.0
2017-Oct-01 03:30N 49°07' W 123°10'0 0.0
2017-Oct-01 03:00N 49°07' W 123°10'  
Track history (hours):
 
Tides and Currents Weather Stations Pressure Air Temp Water Temp Dewpoint Dewpoint Depression Visibility Wind Speed Wind Dir Waves Ship Positions

Pacific Viking

Last reported at 2017-Oct-10 13:11 UTC. Time now 2017-Oct-17 01:05 UTC.
Position N 48°51' W 126°28'.

Length 24 m.

Type: Fishing. MMSI: 316007587.

Date/timePositionNaut miles runAvg speedWind from/ knotsBaromVisibWave heightAir tempDewpointWater temp
2017-Oct-10 13:11N 48°51' W 126°28'0 1.8
2017-Oct-10 12:54N 48°51' W 126°28'1 1.6
2017-Oct-10 12:30N 48°52' W 126°29'1 1.6
2017-Oct-10 11:57N 48°53' W 126°29'23 2.6
2017-Oct-10 03:12N 48°33' W 126°11'8 1.3
2017-Oct-09 20:49N 48°25' W 126°11'19 1.1
2017-Oct-09 03:19N 48°41' W 126°26'3 7.8
2017-Oct-09 02:54N 48°39' W 126°23'9 7.0
2017-Oct-09 01:35N 48°33' W 126°11'1 3.8
2017-Oct-09 01:27N 48°33' W 126°10'8 1.7
2017-Oct-08 20:45N 48°25' W 126°10'2 5.2
2017-Oct-08 20:26N 48°25' W 126°07'21 2.3
2017-Oct-08 11:22N 48°20' W 125°36'25 6.9
2017-Oct-08 07:47N 48°29' W 125°02'3 6.3
2017-Oct-08 07:19N 48°30' W 124°57'2 6.8
2017-Oct-08 06:57N 48°31' W 124°54'4 7.5
2017-Oct-08 06:29N 48°32' W 124°49'4 8.0
2017-Oct-08 06:00N 48°32' W 124°43'4 8.1
2017-Oct-08 05:30N 48°32' W 124°37'4 8.7
2017-Oct-08 05:00N 48°30' W 124°31'4 8.7
2017-Oct-08 04:30N 48°29' W 124°25'4 8.5
2017-Oct-08 04:00N 48°27' W 124°19'4 8.7
2017-Oct-08 03:30N 48°25' W 124°13'4 8.7
2017-Oct-08 02:59N 48°24' W 124°06'4 8.9
2017-Oct-08 02:29N 48°22' W 124°00'6 8.6
2017-Oct-08 01:46N 48°20' W 123°51'3 8.2
2017-Oct-08 01:24N 48°20' W 123°47'4 7.9
2017-Oct-08 00:57N 48°18' W 123°42'3 6.5
2017-Oct-08 00:27N 48°18' W 123°37'3 5.9
2017-Oct-07 23:59N 48°18' W 123°33'4 8.1
2017-Oct-07 23:30N 48°20' W 123°28'3 6.9
2017-Oct-07 23:01N 48°22' W 123°23'3 6.3
2017-Oct-07 22:30N 48°23' W 123°19'3 6.8
2017-Oct-07 22:00N 48°26' W 123°16'3 6.6
2017-Oct-07 21:30N 48°29' W 123°16'4 8.3
2017-Oct-07 21:00N 48°33' W 123°17'5 8.4
2017-Oct-07 20:23N 48°38' W 123°21'6 9.1
2017-Oct-07 19:41N 48°44' W 123°21'2 9.4
2017-Oct-07 19:29N 48°46' W 123°21'5 9.1
2017-Oct-07 18:59N 48°51' W 123°22'4 9.3
2017-Oct-07 18:30N 48°53' W 123°27'5 9.5
2017-Oct-07 18:00N 48°57' W 123°32'5 9.3
2017-Oct-07 17:30N 49°00' W 123°37'4 8.5
2017-Oct-07 17:00N 49°03' W 123°42'5 8.4
2017-Oct-07 16:28N 49°06' W 123°46'4 8.1
2017-Oct-07 16:00N 49°09' W 123°51'4 7.6
2017-Oct-07 15:30N 49°12' W 123°54'2 1.8
2017-Oct-07 14:21N 49°13' W 123°57'0 0.0
2017-Oct-07 13:50N 49°13' W 123°57'0 0.0
2017-Oct-07 13:23N 49°13' W 123°57'0 0.0
2017-Oct-07 12:56N 49°13' W 123°57'0 0.0
2017-Oct-07 12:25N 49°13' W 123°57'0 0.0
2017-Oct-07 11:48N 49°13' W 123°57'0 0.0
2017-Oct-07 11:30N 49°13' W 123°57'0 0.0
2017-Oct-07 07:14N 49°13' W 123°57'0 0.0
2017-Oct-07 06:59N 49°13' W 123°57'0 0.0
2017-Oct-07 06:29N 49°13' W 123°57'0 0.0
2017-Oct-07 05:56N 49°13' W 123°57'0 0.0
2017-Oct-07 05:29N 49°13' W 123°57'0 0.0
2017-Oct-07 05:00N 49°13' W 123°57'0 0.0
2017-Oct-07 04:30N 49°13' W 123°57'0 0.0
2017-Oct-07 04:00N 49°13' W 123°57'0 0.0
2017-Oct-07 03:26N 49°13' W 123°57'0 0.0
2017-Oct-07 02:51N 49°13' W 123°57'0 0.0
2017-Oct-07 02:30N 49°13' W 123°57'0 0.0
2017-Oct-07 01:55N 49°13' W 123°57'0 0.0
2017-Oct-07 01:30N 49°13' W 123°57'0 0.0
2017-Oct-07 00:41N 49°13' W 123°57'0 0.0
2017-Oct-07 00:29N 49°13' W 123°57'0 0.0
2017-Oct-06 23:41N 49°13' W 123°57'0 0.0
2017-Oct-06 23:30N 49°13' W 123°57'0 0.0
2017-Oct-06 23:00N 49°13' W 123°57'0 0.0
2017-Oct-06 22:30N 49°13' W 123°57'0 0.0
2017-Oct-06 22:00N 49°13' W 123°57'0 0.0
2017-Oct-06 21:30N 49°13' W 123°57'0 0.0
2017-Oct-06 21:00N 49°13' W 123°57'0 0.0
2017-Oct-06 20:14N 49°13' W 123°57'0 0.0
2017-Oct-06 20:00N 49°13' W 123°57'0 0.0
2017-Oct-06 18:59N 49°13' W 123°57'0 0.0
2017-Oct-06 18:30N 49°13' W 123°57'0 0.0
2017-Oct-06 17:57N 49°13' W 123°57'0 0.0
2017-Oct-06 17:22N 49°13' W 123°57'0 0.0
2017-Oct-06 16:53N 49°13' W 123°57'0 0.0
2017-Oct-06 16:30N 49°13' W 123°57'0 0.0
2017-Oct-06 15:59N 49°13' W 123°57'0 0.0
2017-Oct-06 15:08N 49°13' W 123°57'0 0.0
2017-Oct-06 14:58N 49°13' W 123°57'0 0.0
2017-Oct-06 14:25N 49°13' W 123°57'0 0.0
2017-Oct-06 13:48N 49°13' W 123°57'0 0.0
2017-Oct-06 09:21N 49°13' W 123°57'0 0.1
2017-Oct-06 09:00N 49°13' W 123°57'2 4.7
2017-Oct-06 08:30N 49°12' W 123°54'4 7.2
2017-Oct-06 07:59N 49°13' W 123°48'3 7.0
2017-Oct-06 07:29N 49°13' W 123°43'3 6.7
2017-Oct-06 07:00N 49°11' W 123°38'3 6.9
2017-Oct-06 06:30N 49°10' W 123°33'3 6.8
2017-Oct-06 06:00N 49°08' W 123°29'3 6.5
2017-Oct-06 05:30N 49°07' W 123°24'3 6.6
2017-Oct-06 05:00N 49°06' W 123°19'4 8.8
2017-Oct-06 04:30N 49°08' W 123°13'2 4.3
2017-Oct-06 04:00N 49°07' W 123°10'0 0.0
2017-Oct-06 03:30N 49°07' W 123°10'0 0.0
2017-Oct-06 03:00N 49°07' W 123°10'0 0.0
2017-Oct-06 02:30N 49°07' W 123°10'0 0.0
2017-Oct-06 02:00N 49°07' W 123°10'0 0.0
2017-Oct-06 01:30N 49°07' W 123°10'0 0.0
2017-Oct-06 01:00N 49°07' W 123°10'0 0.0
2017-Oct-06 00:30N 49°07' W 123°10'0 0.0
2017-Oct-06 00:00N 49°07' W 123°10'0 0.0
2017-Oct-05 23:30N 49°07' W 123°10'0 0.0
2017-Oct-05 23:00N 49°07' W 123°10'0 0.0
2017-Oct-05 22:30N 49°07' W 123°10'0 0.0
2017-Oct-05 22:00N 49°07' W 123°10'0 0.0
2017-Oct-05 21:30N 49°07' W 123°10'0 0.0
2017-Oct-05 21:00N 49°07' W 123°10'0 0.0
2017-Oct-05 20:30N 49°07' W 123°10'0 0.0
2017-Oct-05 20:00N 49°07' W 123°10'0 0.0
2017-Oct-05 19:30N 49°07' W 123°10'0 0.0
2017-Oct-05 19:00N 49°07' W 123°10'0 0.0
2017-Oct-05 18:30N 49°07' W 123°10'0 0.0
2017-Oct-05 18:00N 49°07' W 123°10'0 0.0
2017-Oct-05 17:30N 49°07' W 123°10'0 0.0
2017-Oct-05 17:00N 49°07' W 123°10'0 0.0
2017-Oct-05 15:30N 49°07' W 123°10'0 0.0
2017-Oct-05 15:00N 49°07' W 123°10'0 0.0
2017-Oct-05 14:30N 49°07' W 123°10'0 0.0
2017-Oct-05 14:00N 49°07' W 123°10'0 0.2
2017-Oct-05 13:30N 49°07' W 123°10'0 0.0
2017-Oct-05 13:00N 49°07' W 123°10'0 0.0
2017-Oct-05 12:30N 49°07' W 123°10'0 0.0
2017-Oct-05 12:00N 49°07' W 123°10'0 0.0
2017-Oct-05 11:29N 49°07' W 123°10'0 0.0
2017-Oct-05 11:00N 49°07' W 123°10'0 0.0
2017-Oct-05 10:30N 49°07' W 123°10'0 0.0
2017-Oct-05 09:59N 49°07' W 123°10'0 0.0
2017-Oct-05 09:30N 49°07' W 123°10'0 0.0
2017-Oct-05 09:00N 49°07' W 123°10'0 0.0
2017-Oct-05 08:30N 49°07' W 123°10'0 0.0
2017-Oct-05 08:00N 49°07' W 123°10'0 0.0
2017-Oct-05 07:30N 49°07' W 123°10'0 0.0
2017-Oct-05 07:00N 49°07' W 123°10'0 0.0
2017-Oct-05 06:30N 49°07' W 123°10'0 0.0
2017-Oct-05 06:00N 49°07' W 123°10'0 0.0
2017-Oct-05 05:30N 49°07' W 123°10'0 0.0
2017-Oct-05 05:00N 49°07' W 123°10'0 0.0
2017-Oct-05 04:30N 49°07' W 123°10'0 0.0
2017-Oct-05 04:00N 49°07' W 123°10'0 0.0
2017-Oct-05 03:30N 49°07' W 123°10'0 0.0
2017-Oct-05 03:00N 49°07' W 123°10'0 0.0
2017-Oct-05 02:30N 49°07' W 123°10'0 0.0
2017-Oct-05 02:00N 49°07' W 123°10'0 0.0
2017-Oct-05 01:30N 49°07' W 123°10'0 0.0
2017-Oct-05 01:00N 49°07' W 123°10'0 0.0
2017-Oct-05 00:30N 49°07' W 123°10'0 0.0
2017-Oct-05 00:00N 49°07' W 123°10'0 0.0
2017-Oct-04 23:30N 49°07' W 123°10'0 0.0
2017-Oct-04 23:00N 49°07' W 123°10'0 0.0
2017-Oct-04 22:30N 49°07' W 123°10'0 0.0
2017-Oct-04 22:00N 49°07' W 123°10'0 0.0
2017-Oct-04 21:30N 49°07' W 123°10'0 0.0
2017-Oct-04 21:00N 49°07' W 123°10'0 0.0
2017-Oct-04 20:30N 49°07' W 123°10'0 0.0
2017-Oct-04 20:00N 49°07' W 123°10'0 0.0
2017-Oct-04 19:30N 49°07' W 123°10'0 0.0
2017-Oct-04 19:00N 49°07' W 123°10'0 0.0
2017-Oct-04 18:30N 49°07' W 123°10'0 0.0
2017-Oct-04 18:00N 49°07' W 123°10'0 0.0
2017-Oct-04 17:23N 49°07' W 123°10'0 0.0
2017-Oct-04 17:00N 49°07' W 123°10'0 0.0
2017-Oct-04 16:27N 49°07' W 123°10'0 0.0
2017-Oct-04 15:59N 49°07' W 123°10'0 0.0
2017-Oct-04 15:30N 49°07' W 123°10'0 0.0
2017-Oct-04 14:57N 49°07' W 123°10'0 0.0
2017-Oct-04 14:30N 49°07' W 123°10'0 0.0
2017-Oct-04 14:00N 49°07' W 123°10'0 0.0
2017-Oct-04 13:30N 49°07' W 123°10'0 0.0
2017-Oct-04 13:00N 49°07' W 123°10'0 0.0
2017-Oct-04 12:30N 49°07' W 123°10'0 0.0
2017-Oct-04 12:00N 49°07' W 123°10'0 0.0
2017-Oct-04 11:30N 49°07' W 123°10'0 0.0
2017-Oct-04 11:00N 49°07' W 123°10'0 0.0
2017-Oct-04 10:30N 49°07' W 123°10'0 0.0
2017-Oct-04 10:00N 49°07' W 123°10'0 0.0
2017-Oct-04 09:30N 49°07' W 123°10'0 0.0
2017-Oct-04 09:00N 49°07' W 123°10'0 0.0
2017-Oct-04 08:30N 49°07' W 123°10'0 0.0
2017-Oct-04 08:00N 49°07' W 123°10'0 0.0
2017-Oct-04 07:30N 49°07' W 123°10'0 0.0
2017-Oct-04 07:00N 49°07' W 123°10'0 0.0
2017-Oct-04 06:30N 49°07' W 123°10'0 0.0
2017-Oct-04 06:00N 49°07' W 123°10'0 0.0
2017-Oct-04 05:30N 49°07' W 123°10'0 0.0
2017-Oct-04 05:00N 49°07' W 123°10'0 0.0
2017-Oct-04 04:30N 49°07' W 123°10'0 0.0
2017-Oct-04 04:00N 49°07' W 123°10'0 0.0
2017-Oct-04 03:30N 49°07' W 123°10'0 0.0
2017-Oct-04 03:00N 49°07' W 123°10'0 0.0
2017-Oct-04 02:30N 49°07' W 123°10'0 0.0
2017-Oct-04 02:00N 49°07' W 123°10'0 0.0
2017-Oct-04 01:30N 49°07' W 123°10'0 0.0
2017-Oct-04 01:00N 49°07' W 123°10'0 0.0
2017-Oct-04 00:30N 49°07' W 123°10'0 0.0
2017-Oct-04 00:00N 49°07' W 123°10'0 0.0
2017-Oct-03 23:30N 49°07' W 123°10'0 0.0
2017-Oct-03 23:00N 49°07' W 123°10'0 0.0
2017-Oct-03 22:30N 49°07' W 123°10'0 0.0
2017-Oct-03 22:00N 49°07' W 123°10'0 0.0
2017-Oct-03 21:30N 49°07' W 123°10'0 0.0
2017-Oct-03 21:00N 49°07' W 123°10'0 0.0
2017-Oct-03 20:30N 49°07' W 123°10'0 0.0
2017-Oct-03 20:00N 49°07' W 123°10'0 0.0
2017-Oct-03 19:30N 49°07' W 123°10'0 0.0
2017-Oct-03 19:00N 49°07' W 123°10'0 0.0
2017-Oct-03 18:19N 49°07' W 123°10'0 0.0
2017-Oct-03 18:00N 49°07' W 123°10'0 0.0
2017-Oct-03 17:28N 49°07' W 123°10'0 0.0
2017-Oct-03 17:00N 49°07' W 123°10'0 0.0
2017-Oct-03 16:29N 49°07' W 123°10'0 0.0
2017-Oct-03 16:00N 49°07' W 123°10'0 0.0
2017-Oct-03 15:00N 49°07' W 123°10'0 0.0
2017-Oct-03 14:00N 49°07' W 123°10'0 0.0
2017-Oct-03 13:30N 49°07' W 123°10'0 0.0
2017-Oct-03 13:00N 49°07' W 123°10'0 0.0
2017-Oct-03 12:30N 49°07' W 123°10'0 0.0
2017-Oct-03 11:57N 49°07' W 123°10'0 0.0
2017-Oct-03 11:29N 49°07' W 123°10'0 0.0
2017-Oct-03 10:53N 49°07' W 123°10'0 0.0
2017-Oct-03 10:25N 49°07' W 123°10'0 0.0
2017-Oct-03 09:58N 49°07' W 123°10'0 0.0
2017-Oct-03 09:29N 49°07' W 123°10'0 0.0
2017-Oct-03 09:00N 49°07' W 123°10'0 0.0
2017-Oct-03 08:30N 49°07' W 123°10'0 0.0
2017-Oct-03 08:00N 49°07' W 123°10'0 0.0
2017-Oct-03 07:30N 49°07' W 123°10'0 0.0
2017-Oct-03 07:00N 49°07' W 123°10'0 0.0
2017-Oct-03 06:29N 49°07' W 123°10'0 0.0
2017-Oct-03 05:59N 49°07' W 123°10'0 0.0
2017-Oct-03 05:21N 49°07' W 123°10'0 0.0
2017-Oct-03 05:00N 49°07' W 123°10'0 0.0
2017-Oct-03 04:30N 49°07' W 123°10'0 0.0
2017-Oct-03 04:00N 49°07' W 123°10'0 0.0
2017-Oct-03 03:30N 49°07' W 123°10'0 0.0
2017-Oct-03 03:00N 49°07' W 123°10'0 0.0
2017-Oct-03 02:30N 49°07' W 123°10'0 0.0
2017-Oct-03 02:00N 49°07' W 123°10'0 0.0
2017-Oct-03 01:30N 49°07' W 123°10'0 0.0
2017-Oct-03 01:00N 49°07' W 123°10'0 0.0
2017-Oct-03 00:30N 49°07' W 123°10'0 0.0
2017-Oct-03 00:00N 49°07' W 123°10'0 0.0
2017-Oct-02 23:30N 49°07' W 123°10'0 0.0
2017-Oct-02 23:00N 49°07' W 123°10'0 0.0
2017-Oct-02 22:30N 49°07' W 123°10'0 0.0
2017-Oct-02 22:00N 49°07' W 123°10'0 0.0
2017-Oct-02 21:30N 49°07' W 123°10'0 0.0
2017-Oct-02 21:00N 49°07' W 123°10'0 0.0
2017-Oct-02 20:30N 49°07' W 123°10'0 0.0
2017-Oct-02 19:59N 49°07' W 123°10'0 0.0
2017-Oct-02 19:27N 49°07' W 123°10'0 0.0
2017-Oct-02 18:59N 49°07' W 123°10'0 0.0
2017-Oct-02 18:30N 49°07' W 123°10'0 0.0
2017-Oct-02 18:00N 49°07' W 123°10'0 0.0
2017-Oct-02 17:30N 49°07' W 123°10'0 0.0
2017-Oct-02 16:56N 49°07' W 123°10'0 0.0
2017-Oct-02 16:29N 49°07' W 123°10'0 0.0
2017-Oct-02 16:00N 49°07' W 123°10'0 0.0
2017-Oct-02 15:30N 49°07' W 123°10'0 0.0
2017-Oct-02 15:00N 49°07' W 123°10'0 0.0
2017-Oct-02 14:27N 49°07' W 123°10'0 0.0
2017-Oct-02 14:00N 49°07' W 123°10'0 0.0
2017-Oct-02 13:28N 49°07' W 123°10'0 0.0
2017-Oct-02 13:00N 49°07' W 123°10'0 0.0
2017-Oct-02 12:30N 49°07' W 123°10'0 0.0
2017-Oct-02 12:00N 49°07' W 123°10'0 0.0
2017-Oct-02 11:30N 49°07' W 123°10'0 0.0
2017-Oct-02 11:00N 49°07' W 123°10'0 0.0
2017-Oct-02 10:30N 49°07' W 123°10'0 0.0
2017-Oct-02 10:00N 49°07' W 123°10'0 0.0
2017-Oct-02 09:30N 49°07' W 123°10'0 0.0
2017-Oct-02 09:00N 49°07' W 123°10'0 0.0
2017-Oct-02 08:30N 49°07' W 123°10'0 0.0
2017-Oct-02 08:00N 49°07' W 123°10'0 0.0
2017-Oct-02 07:30N 49°07' W 123°10'0 0.0
2017-Oct-02 07:00N 49°07' W 123°10'0 0.0
2017-Oct-02 06:30N 49°07' W 123°10'0 0.0
2017-Oct-02 06:00N 49°07' W 123°10'0 0.0
2017-Oct-02 05:30N 49°07' W 123°10'0 0.0
2017-Oct-02 05:00N 49°07' W 123°10'0 0.0
2017-Oct-02 04:30N 49°07' W 123°10'0 0.0
2017-Oct-02 04:00N 49°07' W 123°10'0 0.0
2017-Oct-02 03:30N 49°07' W 123°10'0 0.0
2017-Oct-02 02:59N 49°07' W 123°10'0 0.0
2017-Oct-02 02:26N 49°07' W 123°10'0 0.0
2017-Oct-02 02:00N 49°07' W 123°10'0 0.0
2017-Oct-02 01:30N 49°07' W 123°10'0 0.0
2017-Oct-02 01:00N 49°07' W 123°10'0 0.0
2017-Oct-02 00:30N 49°07' W 123°10'0 0.0
2017-Oct-02 00:00N 49°07' W 123°10'0 0.0
2017-Oct-01 23:30N 49°07' W 123°10'0 0.0
2017-Oct-01 22:59N 49°07' W 123°10'0 0.0
2017-Oct-01 22:23N 49°07' W 123°10'0 0.0
2017-Oct-01 21:56N 49°07' W 123°10'0 0.0
2017-Oct-01 21:30N 49°07' W 123°10'0 0.0
2017-Oct-01 20:59N 49°07' W 123°10'0 0.0
2017-Oct-01 20:30N 49°07' W 123°10'0 0.0
2017-Oct-01 20:00N 49°07' W 123°10'0 0.0
2017-Oct-01 19:30N 49°07' W 123°10'0 0.0
2017-Oct-01 18:59N 49°07' W 123°10'0 0.0
2017-Oct-01 18:24N 49°07' W 123°10'0 0.0
2017-Oct-01 17:05N 49°07' W 123°10'0 0.0
2017-Oct-01 16:57N 49°07' W 123°10'0 0.0
2017-Oct-01 16:30N 49°07' W 123°10'0 0.0
2017-Oct-01 16:00N 49°07' W 123°10'0 0.0
2017-Oct-01 15:30N 49°07' W 123°10'0 0.0
2017-Oct-01 15:00N 49°07' W 123°10'0 0.0
2017-Oct-01 14:30N 49°07' W 123°10'0 0.0
2017-Oct-01 14:00N 49°07' W 123°10'0 0.0
2017-Oct-01 13:30N 49°07' W 123°10'0 0.0
2017-Oct-01 13:00N 49°07' W 123°10'0 0.0
2017-Oct-01 12:30N 49°07' W 123°10'0 0.0
2017-Oct-01 12:00N 49°07' W 123°10'0 0.0
2017-Oct-01 11:29N 49°07' W 123°10'0 0.0
2017-Oct-01 11:00N 49°07' W 123°10'0 0.0
2017-Oct-01 10:30N 49°07' W 123°10'0 0.0
2017-Oct-01 10:00N 49°07' W 123°10'0 0.0
2017-Oct-01 09:30N 49°07' W 123°10'0 0.0
2017-Oct-01 09:00N 49°07' W 123°10'0 0.0
2017-Oct-01 08:30N 49°07' W 123°10'0 0.0
2017-Oct-01 08:00N 49°07' W 123°10'0 0.0
2017-Oct-01 07:30N 49°07' W 123°10'0 0.0
2017-Oct-01 07:00N 49°07' W 123°10'0 0.0
2017-Oct-01 06:30N 49°07' W 123°10'0 0.0
2017-Oct-01 06:00N 49°07' W 123°10'0 0.0
2017-Oct-01 05:30N 49°07' W 123°10'0 0.0
2017-Oct-01 05:00N 49°07' W 123°10'0 0.0
2017-Oct-01 04:30N 49°07' W 123°10'0 0.0
2017-Oct-01 04:00N 49°07' W 123°10'0 0.0
2017-Oct-01 03:30N 49°07' W 123°10'0 0.0
2017-Oct-01 03:00N 49°07' W 123°10'  

Dump ship's entire track history